Flight Track Log - Related Links

Times and Time Zones

All times are in EDT time to prevent confusion due to time zone crossing. See the EGF4174 flight status page for this flight to view local times or setup timezone preferences in your user account.

Time Position Orientation Groundspeed Altitude Reporting Facility
EDT Latitude Longitude Course Direction KTS MPH feet Rate Location/Type
Fri 06:24:49 PM 43.1097 -76.1319 286° West 136 157 1,200  Level Boston Center
Fri 06:25:07 PM 43.1111 -76.1492 276° West 157 181 1,800 1,747 Climbing Boston Center
Fri 06:26:08 PM 43.1300 -76.2158 291° West 203 234 3,500 1,659 Climbing Boston Center
Fri 06:27:00 PM 43.1833 -76.4229 270° West  Level FlightAware Approximate
Fri 06:27:57 PM 43.1917 -76.3569 301° West 234 269 6,500  Level Cleveland Center
Fri 06:28:00 PM 43.2040 -76.5280 281° West  Level FlightAware Approximate
Fri 06:28:57 PM 43.2017 -76.4561 278° West 246 283 8,500  Level Cleveland Center
Fri 06:29:00 PM 43.2222 -76.6425 286° West  Level FlightAware Approximate
Fri 06:29:57 PM 43.2197 -76.5544 284° West 262 302 10,600  Level Cleveland Center
Fri 06:30:00 PM 43.2464 -76.7551 286° West  Level FlightAware Approximate
Fri 06:30:57 PM 43.2358 -76.6619 282° West 273 314 11,500  Level Cleveland Center
Fri 06:31:57 PM 43.2542 -76.7747 283° West 297 342 12,400 2,200 Climbing Cleveland Center
Fri 06:32:57 PM 43.2744 -76.8875 284° West 305 351 15,900 2,650 Climbing Cleveland Center
Fri 06:33:57 PM 43.2900 -76.9808 283° West 288 331 17,700 1,600 Climbing Cleveland Center
Fri 06:34:57 PM 43.3011 -77.0772 279° West 268 308 19,100 1,200 Climbing Cleveland Center
Fri 06:35:57 PM 43.3083 -77.1794 276° West 268 308 20,100 1,050 Climbing Cleveland Center
Fri 06:36:57 PM 43.3075 -77.2908 269° West 273 314 21,200 950 Climbing Cleveland Center
Fri 06:37:57 PM 43.3022 -77.3994 266° West 286 329 22,000 400 Climbing Cleveland Center
Fri 06:38:57 PM 43.3014 -77.5222 270° West 306 352 22,000  Level Cleveland Center
Fri 06:39:57 PM 43.2964 -77.6567 267° West 333 383 22,000  Level Cleveland Center
Fri 06:40:57 PM 43.2936 -77.7936 268° West 350 403 22,000  Level Cleveland Center
Fri 06:41:57 PM 43.2461 -77.8983 238° Southwest 337 388 22,000  Level Cleveland Center
Fri 06:42:57 PM 43.1964 -78.0003 236° Southwest 331 381 22,000  Level Cleveland Center
Fri 06:43:57 PM 43.1483 -78.0961 236° Southwest 320 368 22,000  Level Cleveland Center
Fri 06:44:57 PM 43.1800 -78.2203 289° West 297 342 22,000  Level Cleveland Center
Fri 06:45:57 PM 43.2842 -78.3189 325° Northwest 341 392 22,000  Level Cleveland Center
Fri 06:46:57 PM 43.3344 -78.4428 299° West 360 414 22,000  Level Cleveland Center
Fri 06:47:57 PM 43.3200 -78.5717 261° West 336 387 22,000  Level Cleveland Center
Fri 06:48:57 PM 43.3119 -78.7031 265° West 336 387 22,000  Level Cleveland Center
Fri 06:49:57 PM 43.3036 -78.8344 265° West 348 400 22,000  Level Cleveland Center
Fri 06:50:42 PM 43.3000 -78.9167 267° West 340 391 22,000  Level Toronto Center
Fri 06:51:42 PM 43.2833 -79.0333 259° West 340 391 22,000  Level Toronto Center
Fri 06:52:42 PM 43.2833 -79.1833 270° West 330 380 22,000  Level Toronto Center
Fri 06:53:42 PM 43.2667 -79.2833 257° West 330 380 22,000  Level Toronto Center
Fri 06:54:42 PM 43.2667 -79.4333 270° West 330 380 22,000  Level Toronto Center
Fri 06:55:42 PM 43.2667 -79.5333 270° West 340 391 22,000  Level Toronto Center
Fri 06:56:42 PM 43.2500 -79.6833 261° West 340 391 22,000  Level Toronto Center
Fri 06:57:42 PM 43.2500 -79.8167 270° West 340 391 22,000  Level Toronto Center
Fri 06:58:42 PM 43.2333 -79.9333 259° West 330 380 22,000  Level Toronto Center
Fri 07:00:42 PM 43.2167 -80.1833 265° West 320 368 22,000  Level Toronto Center
Fri 07:01:42 PM 43.2167 -80.3167 270° West 330 380 22,000  Level Toronto Center
Fri 07:02:42 PM 43.2167 -80.4333 270° West 330 380 22,000  Level Toronto Center
Fri 07:03:42 PM 43.2000 -80.5500 259° West 330 380 22,000  Level Toronto Center
Fri 07:04:42 PM 43.2000 -80.6833 270° West 330 380 22,000  Level Toronto Center
Fri 07:05:42 PM 43.1833 -80.8000 259° West 330 380 22,000  Level Toronto Center
Fri 07:06:42 PM 43.1667 -80.9333 260° West 330 380 22,000  Level Toronto Center
Fri 07:07:42 PM 43.1667 -81.0500 270° West 330 380 22,000  Level Toronto Center
Fri 07:08:42 PM 43.1500 -81.1833 260° West 330 380 22,000  Level Toronto Center
Fri 07:09:42 PM 43.1500 -81.3167 270° West 330 380 22,000  Level Toronto Center
Fri 07:10:42 PM 43.1333 -81.4333 259° West 330 380 22,000  Level Toronto Center
Fri 07:11:42 PM 43.1333 -81.5667 270° West 340 391 22,000  Level Toronto Center
Fri 07:12:42 PM 43.1167 -81.7167 261° West 340 391 22,000  Level Toronto Center
Fri 07:13:42 PM 43.1167 -81.8333 270° West 350 403 22,000  Level Toronto Center
Fri 07:14:42 PM 43.1000 -81.9667 260° West 350 403 22,000  Level Toronto Center
Fri 07:15:42 PM 43.0833 -82.1000 260° West 340 391 22,000  Level Toronto Center
Fri 07:16:42 PM 43.0833 -82.2167 270° West 330 380 22,000  Level Toronto Center
Fri 07:17:42 PM 43.0667 -82.3333 259° West 320 368 22,000  Level Toronto Center
Fri 07:18:42 PM 43.0667 -82.4667 270° West 320 368 22,000  Level Toronto Center
Fri 07:19:42 PM 43.0667 -82.5833 270° West 330 380 22,000  Level Toronto Center
Fri 07:20:42 PM 43.0333 -82.7167 251° West 340 391 22,000  Level Toronto Center
Fri 07:21:45 PM 43.0422 -82.8531 275° West 337 388 22,000  Level Cleveland Center
Fri 07:22:45 PM 43.0314 -82.9803 263° West 337 388 22,000  Level Cleveland Center
Fri 07:23:45 PM 43.0203 -83.1106 263° West 344 396 22,000  Level Cleveland Center
Fri 07:24:45 PM 43.0108 -83.2464 265° West 355 409 22,000  Level Cleveland Center
Fri 07:25:45 PM 42.9972 -83.3878 263° West 366 421 22,000  Level Cleveland Center
Fri 07:26:45 PM 42.9833 -83.5292 262° West 371 427 22,000  Level Cleveland Center
Fri 07:27:45 PM 42.9689 -83.6733 262° West 381 438 22,000  Level Cleveland Center
Fri 07:28:45 PM 42.9569 -83.8117 263° West 381 438 22,000  Level Cleveland Center
Fri 07:29:45 PM 42.9444 -83.9528 263° West 381 438 22,000  Level Cleveland Center
Fri 07:30:45 PM 42.9319 -84.0939 263° West 381 438 22,000  Level Cleveland Center
Fri 07:31:45 PM 42.9150 -84.2347 261° West 386 444 22,000  Level Cleveland Center
Fri 07:32:45 PM 42.9067 -84.3647 265° West 386 444 22,000  Level Cleveland Center
Fri 07:33:33 PM 42.8956 -84.4692 262° West 382 440 22,000  Level Chicago Center
Fri 07:34:34 PM 42.8811 -84.6094 262° West 376 433 22,000  Level Chicago Center
Fri 07:35:36 PM 42.8644 -84.7775 262° West 375 432 22,000  Level Chicago Center
Fri 07:36:38 PM 42.8489 -84.9181 261° West 375 432 22,000  Level Chicago Center
Fri 07:37:39 PM 42.8339 -85.0603 262° West 380 437 22,000  Level Chicago Center
Fri 07:38:41 PM 42.8175 -85.2039 261° West 383 441 22,000  Level Chicago Center
Fri 07:39:43 PM 42.8025 -85.3475 262° West 383 441 22,000 -532 Level Chicago Center
Fri 07:40:45 PM 42.7881 -85.4889 262° West 379 436 20,900 -976 Descending Chicago Center
Fri 07:41:46 PM 42.7639 -85.6244 256° West 369 425 20,000 -439 Descending Chicago Center
Fri 07:42:48 PM 42.7394 -85.7606 256° West 368 423 20,000  Level Chicago Center
Fri 07:43:50 PM 42.7103 -85.9214 256° West 363 418 20,000  Level Chicago Center
Fri 07:44:51 PM 42.6856 -86.0558 256° West 364 419 20,000  Level Chicago Center
Fri 07:45:53 PM 42.6611 -86.1906 256° West 365 420 20,000 -242 Level Chicago Center
Fri 07:46:55 PM 42.6353 -86.3250 255° West 366 421 19,500 -1,171 Descending Chicago Center
Fri 07:47:56 PM 42.6097 -86.4589 256° West 366 421 17,600 -1,805 Descending Chicago Center
Fri 07:48:58 PM 42.5853 -86.5914 256° West 364 419 15,800 -1,694 Descending Chicago Center
Fri 07:50:00 PM 42.5614 -86.7186 256° West 353 406 14,100 -1,694 Descending Chicago Center
Fri 07:51:02 PM 42.5306 -86.8353 250° West 330 380 12,300 -1,854 Descending Chicago Center
Fri 07:52:03 PM 42.4964 -86.9608 250° West 300 345 10,300 -1,122 Descending Chicago Center
Fri 07:53:05 PM 42.4678 -87.0606 249° West 287 330 10,000 -532 Descending Chicago Center
Fri 07:54:07 PM 42.4447 -87.1450 250° West 245 282 9,200 -726 Descending Chicago Center
Fri 07:55:09 PM 42.4200 -87.2336 249° West 248 285 8,500 -878 Descending Chicago Center
Fri 07:56:10 PM 42.3975 -87.3203 251° West 246 283 7,400 -1,122 Descending Chicago Center
Fri 07:57:12 PM 42.3639 -87.4044 242° Southwest 242 278 6,200 -677 Descending Chicago Center
Fri 07:58:14 PM 42.2897 -87.3908 172° South 257 296 6,000 -290 Descending Chicago Center
Fri 07:59:16 PM 42.2164 -87.3797 174° South 264 304 5,600 -732 Descending Chicago Center
Fri 08:00:17 PM 42.1450 -87.3650 171° South 260 299 4,500 -780 Descending Chicago Center
Fri 08:01:19 PM 42.0756 -87.3528 173° South 255 293 4,000 -242 Descending Chicago Center
Fri 08:02:21 PM 42.0144 -87.3561 182° South 241 277 4,000 74 Level Chicago Center
Fri 08:02:40 PM 42.0000 -87.3833 234° Southwest 200 230 4,100 76 Climbing Chicago TRACON
Fri 08:03:40 PM 42.0000 -87.4500 270° West 195 224 4,100  Level Chicago TRACON
Fri 08:04:40 PM 42.0000 -87.5167 270° West 171 197 4,100  Level Chicago TRACON
Fri 08:05:40 PM 42.0000 -87.5833 270° West 166 191 4,100  Level Chicago TRACON
Fri 08:06:34 PM 42.0000 -87.6333 270° West 151 174 4,100 -158 Level Chicago TRACON
Fri 08:07:34 PM 42.0000 -87.7000 270° West 163 188 3,800 -300 Descending Chicago TRACON

Login

Don't have an account? Register now (free) for customized features, flight alerts, and more!